Time;durP1;ratioP1;P1;durP2;ratioP2;P2;SDS_P1;SDS_P2;PMS_P1;PMS_P2;Temp;Humidity;BMP_temperature;BMP_pressure;BME280_temperature;BME280_humidity;BME280_pressure;Samples;Min_cycle;Max_cycle;Signal;HPM_P1;HPM_P2
2022/05/11 00:00:49;;;;;;;5.80;4.85;;;19.40;52.70;;;;;;5034320;28;20028;-72
2022/05/11 00:03:15;;;;;;;5.47;3.50;;;19.40;52.60;;;;;;5033052;28;20068;-71
2022/05/11 00:05:41;;;;;;;6.65;4.43;;;19.40;52.60;;;;;;5034496;28;20403;-72
2022/05/11 00:08:07;;;;;;;5.85;4.13;;;19.40;52.90;;;;;;5033911;28;20060;-71
2022/05/11 00:10:34;;;;;;;4.78;4.32;;;19.40;52.50;;;;;;5034229;28;20104;-71
2022/05/11 00:12:59;;;;;;;6.03;4.35;;;19.50;52.70;;;;;;5034054;28;20185;-71
2022/05/11 00:15:26;;;;;;;4.70;3.70;;;19.40;52.70;;;;;;5032603;28;20119;-72
2022/05/11 00:17:52;;;;;;;5.10;3.83;;;19.40;53.00;;;;;;5033599;28;20108;-71
2022/05/11 00:22:43;;;;;;;7.75;4.30;;;19.20;53.50;;;;;;5029122;22;20054;-70
2022/05/11 00:25:11;;;;;;;4.80;4.10;;;19.30;53.80;;;;;;5013837;28;20472;-70
2022/05/11 00:27:37;;;;;;;4.18;3.78;;;19.20;53.70;;;;;;5013544;28;20088;-70
2022/05/11 00:30:03;;;;;;;6.75;4.13;;;19.20;53.90;;;;;;5014027;28;20472;-69
2022/05/11 00:32:28;;;;;;;6.32;4.38;;;19.20;54.10;;;;;;5031496;28;20023;-70
2022/05/11 00:34:54;;;;;;;5.68;4.60;;;19.20;54.10;;;;;;5015574;28;20114;-69
2022/05/11 00:37:21;;;;;;;6.30;3.83;;;19.20;54.00;;;;;;5033071;28;20083;-70
2022/05/11 00:39:47;;;;;;;5.40;4.00;;;19.10;54.10;;;;;;5033518;28;20025;-70
2022/05/11 00:42:13;;;;;;;4.57;4.18;;;19.20;54.00;;;;;;5033362;28;20041;-70
2022/05/11 00:44:39;;;;;;;8.68;5.22;;;19.10;54.10;;;;;;5033210;28;20557;-70
2022/05/11 00:47:21;;;;;;;6.63;4.45;;;19.10;54.20;;;;;;5033010;28;20032;-69
2022/05/11 00:50:03;;;;;;;7.65;4.60;;;19.00;54.20;;;;;;5033054;28;20025;-68
2022/05/11 00:52:34;;;;;;;7.20;4.97;;;19.00;54.40;;;;;;5033117;28;20111;-70
2022/05/11 00:55:04;;;;;;;6.38;4.35;;;18.90;54.40;;;;;;5015138;28;20029;-70
2022/05/11 00:57:41;;;;;;;5.95;4.35;;;18.90;54.60;;;;;;5032834;28;20284;-69
2022/05/11 01:00:10;;;;;;;4.68;4.15;;;18.90;54.60;;;;;;5032788;28;20414;-70
2022/05/11 01:02:38;;;;;;;6.55;4.50;;;18.80;55.20;;;;;;5032961;28;20017;-70
2022/05/11 01:05:06;;;;;;;5.20;4.30;;;18.70;55.30;;;;;;5032946;28;20021;-70
2022/05/11 01:07:33;;;;;;;6.57;4.15;;;18.70;55.30;;;;;;5032569;28;20029;-70
2022/05/11 01:09:58;;;;;;;7.07;4.15;;;18.60;55.70;;;;;;5032580;28;20049;-68
2022/05/11 01:12:32;;;;;;;5.65;4.30;;;18.50;55.80;;;;;;5032151;28;20420;-69
2022/05/11 01:15:04;;;;;;;7.97;4.30;;;18.50;56.20;;;;;;5032179;28;20555;-68
2022/05/11 01:17:29;;;;;;;;;;;18.40;56.30;;;;;;5015011;28;20057;-70
2022/05/11 01:19:55;;;;;;;5.18;4.50;;;18.40;56.40;;;;;;5032599;28;19948;-71
2022/05/11 01:22:34;;;;;;;4.65;4.00;;;18.40;56.20;;;;;;5032365;28;20087;-70
2022/05/11 01:25:03;;;;;;;5.57;4.95;;;18.40;56.50;;;;;;5032582;28;20155;-70
2022/05/11 01:27:36;;;;;;;4.03;3.63;;;18.40;56.50;;;;;;5014593;28;20112;-71
2022/05/11 01:30:20;;;;;;;4.97;4.18;;;18.40;56.30;;;;;;5032396;28;20031;-71
2022/05/11 01:32:50;;;;;;;9.35;4.32;;;18.40;56.40;;;;;;5032552;28;20021;-71
2022/05/11 01:35:47;;;;;;;6.05;4.22;;;18.40;56.70;;;;;;5032278;28;20021;-71
2022/05/11 01:38:52;;;;;;;5.15;4.00;;;18.40;56.90;;;;;;4991595;28;20034;-70
2022/05/11 01:41:30;;;;;;;5.25;4.75;;;18.40;56.70;;;;;;5031241;28;20030;-71
2022/05/11 01:43:56;;;;;;;6.28;4.18;;;18.40;56.80;;;;;;5001441;28;20026;-70
2022/05/11 01:46:22;;;;;;;5.10;4.43;;;18.40;56.90;;;;;;5012428;28;20053;-69
2022/05/11 01:48:48;;;;;;;5.50;4.35;;;18.40;56.60;;;;;;5012508;28;20022;-69
2022/05/11 01:51:15;;;;;;;4.18;3.85;;;18.40;56.60;;;;;;5012447;28;20366;-69
2022/05/11 01:53:42;;;;;;;6.57;4.53;;;18.40;56.60;;;;;;5018123;28;20096;-69
2022/05/11 01:56:09;;;;;;;5.25;4.32;;;18.40;57.10;;;;;;5015171;28;20075;-70
2022/05/11 01:58:35;;;;;;;6.10;4.82;;;18.30;57.00;;;;;;5031768;28;20056;-69
2022/05/11 02:01:01;;;;;;;4.85;4.10;;;18.20;57.30;;;;;;5031791;28;20064;-69
2022/05/11 02:03:27;;;;;;;6.80;4.43;;;18.20;57.90;;;;;;5031952;28;20472;-69
2022/05/11 02:08:40;;;;;;;9.15;5.00;;;18.10;57.80;;;;;;5031937;28;20450;-70
2022/05/11 02:11:06;;;;;;;8.52;4.80;;;18.00;58.30;;;;;;5014102;28;20021;-70
2022/05/11 02:13:33;;;;;;;7.80;5.10;;;18.00;57.90;;;;;;5031804;28;20053;-69
2022/05/11 02:15:59;;;;;;;10.05;4.78;;;18.00;58.40;;;;;;5031660;28;20033;-70
2022/05/11 02:18:24;;;;;;;5.80;4.45;;;18.00;58.30;;;;;;5031651;28;20044;-69
2022/05/11 02:20:50;;;;;;;6.35;4.82;;;18.00;58.30;;;;;;5031533;28;20487;-71
2022/05/11 02:23:18;;;;;;;6.50;4.55;;;18.00;58.30;;;;;;5031435;28;20033;-70
2022/05/11 02:25:45;;;;;;;6.25;5.47;;;18.00;58.50;;;;;;5031668;28;20025;-69
2022/05/11 02:28:12;;;;;;;5.25;4.65;;;18.00;58.40;;;;;;5031246;28;20033;-70
2022/05/11 02:30:38;;;;;;;6.38;4.50;;;18.10;58.40;;;;;;5013821;28;20044;-71
2022/05/11 02:33:04;;;;;;;5.22;4.53;;;18.00;58.50;;;;;;5031904;28;20602;-70
2022/05/11 02:35:29;;;;;;;7.50;4.70;;;18.00;58.20;;;;;;5031425;28;20116;-71
2022/05/11 02:38:01;;;;;;;4.80;4.30;;;18.00;58.40;;;;;;5031361;28;20037;-67
2022/05/11 02:40:29;;;;;;;8.20;4.78;;;18.10;58.40;;;;;;5031438;28;20468;-68
2022/05/11 02:42:56;;;;;;;12.98;4.90;;;18.10;58.10;;;;;;5026682;28;20171;-69
2022/05/11 02:45:23;;;;;;;8.38;4.97;;;18.10;58.00;;;;;;5010417;28;20036;-68
2022/05/11 02:47:50;;;;;;;7.22;5.20;;;18.20;57.80;;;;;;4993871;28;20108;-70
2022/05/11 02:50:24;;;;;;;5.65;4.30;;;18.20;57.50;;;;;;4994078;28;20021;-70
2022/05/11 02:52:50;;;;;;;6.65;4.97;;;18.20;57.80;;;;;;5011729;28;20113;-69
2022/05/11 02:55:15;;;;;;;6.15;4.57;;;18.20;57.80;;;;;;5029007;28;20160;-70
2022/05/11 02:57:41;;;;;;;6.53;4.50;;;18.20;57.80;;;;;;5031118;28;20036;-70
2022/05/11 03:00:10;;;;;;;4.97;4.47;;;18.30;57.70;;;;;;5031288;28;20106;-70
2022/05/11 03:02:36;;;;;;;5.65;4.65;;;18.40;57.30;;;;;;5031241;28;20032;-69
2022/05/11 03:05:03;;;;;;;5.30;4.13;;;18.40;57.50;;;;;;5031359;28;20033;-69
2022/05/11 03:07:29;;;;;;;5.20;4.15;;;18.40;57.30;;;;;;5030907;28;20080;-69
2022/05/11 03:09:54;;;;;;;6.22;5.10;;;18.50;57.50;;;;;;5013721;28;20026;-69
2022/05/11 03:12:24;;;;;;;8.23;4.90;;;18.50;57.30;;;;;;5031165;28;20033;-69
2022/05/11 03:14:53;;;;;;;10.30;5.75;;;18.40;57.40;;;;;;5031298;28;20083;-71
2022/05/11 03:17:19;;;;;;;6.32;4.88;;;18.50;57.10;;;;;;5013228;28;20025;-69
2022/05/11 03:19:44;;;;;;;5.35;4.60;;;18.50;57.30;;;;;;5013356;28;20117;-71
2022/05/11 03:22:10;;;;;;;4.90;4.40;;;18.50;57.40;;;;;;5031085;28;20075;-71
2022/05/11 03:24:36;;;;;;;8.80;4.80;;;18.50;57.10;;;;;;5031327;28;20025;-70
2022/05/11 03:27:01;;;;;;;4.88;4.38;;;18.50;56.90;;;;;;5031093;28;20064;-71
2022/05/11 03:29:27;;;;;;;5.93;4.35;;;18.50;57.00;;;;;;5031038;28;20029;-68
2022/05/11 03:34:37;;;;;;;6.25;4.50;;;18.60;56.60;;;;;;5032606;28;20116;-71
2022/05/11 03:37:04;;;;;;;6.28;4.95;;;18.70;56.80;;;;;;5034232;28;20045;-70
2022/05/11 03:39:30;;;;;;;7.78;4.97;;;18.70;56.60;;;;;;5034438;28;20057;-70
2022/05/11 03:41:55;;;;;;;5.57;4.10;;;18.80;56.50;;;;;;5034289;28;20076;-70
2022/05/11 03:44:21;;;;;;;5.07;4.35;;;18.80;56.60;;;;;;5018017;28;20045;-70
2022/05/11 03:46:46;;;;;;;6.50;5.00;;;18.80;56.50;;;;;;5014541;28;20030;-70
2022/05/11 03:49:12;;;;;;;7.03;4.13;;;18.90;56.60;;;;;;5014527;28;20026;-69
2022/05/11 03:51:37;;;;;;;6.80;4.97;;;19.00;56.50;;;;;;5014375;28;20030;-70
2022/05/11 03:54:03;;;;;;;6.18;4.47;;;19.00;56.10;;;;;;5023596;28;20112;-70
2022/05/11 03:56:29;;;;;;;6.95;4.57;;;19.10;56.00;;;;;;5034181;28;20033;-69
2022/05/11 03:58:56;;;;;;;8.13;4.88;;;19.20;55.80;;;;;;5033914;28;20026;-69
2022/05/11 04:01:21;;;;;;;5.32;4.38;;;19.20;55.90;;;;;;5034033;28;20028;-69
2022/05/11 04:03:47;;;;;;;16.52;5.07;;;19.20;55.90;;;;;;5034271;28;20018;-70
2022/05/11 04:06:13;;;;;;;9.20;4.60;;;19.30;55.60;;;;;;5034098;28;20053;-70
2022/05/11 04:08:38;;;;;;;4.88;4.40;;;19.30;55.60;;;;;;5034236;28;20100;-70
2022/05/11 04:11:04;;;;;;;5.82;4.22;;;19.30;55.50;;;;;;5033937;28;20037;-70
2022/05/11 04:13:30;;;;;;;4.85;4.32;;;19.50;55.20;;;;;;5033827;28;20026;-69
2022/05/11 04:15:56;;;;;;;4.97;4.15;;;19.60;54.60;;;;;;5033761;28;20076;-70
2022/05/11 04:18:22;;;;;;;8.75;4.32;;;19.70;54.50;;;;;;5033560;28;20493;-70
2022/05/11 04:20:48;;;;;;;5.30;4.10;;;19.70;54.20;;;;;;5033477;28;20033;-70
2022/05/11 04:23:13;;;;;;;5.28;4.13;;;19.80;54.20;;;;;;5016054;28;20116;-72
2022/05/11 04:25:39;;;;;;;13.20;4.95;;;20.00;54.00;;;;;;5033653;28;20040;-70
2022/05/11 04:28:11;;;;;;;9.40;4.40;;;20.00;53.60;;;;;;5033341;28;20025;-70
2022/05/11 04:30:37;;;;;;;6.60;4.03;;;20.10;53.70;;;;;;5033398;28;20105;-70
2022/05/11 04:33:02;;;;;;;8.30;4.60;;;20.10;53.40;;;;;;5033341;28;20105;-71
2022/05/11 04:35:30;;;;;;;10.77;4.88;;;20.20;53.30;;;;;;5033111;28;20029;-70
2022/05/11 04:37:57;;;;;;;5.88;4.18;;;20.20;53.10;;;;;;5033276;28;20495;-70
2022/05/11 04:40:23;;;;;;;6.63;4.82;;;20.30;52.70;;;;;;5033322;28;20467;-70
2022/05/11 04:42:49;;;;;;;6.60;4.28;;;20.50;52.40;;;;;;5029394;28;20049;-70
2022/05/11 04:45:16;;;;;;;5.13;4.22;;;20.60;52.20;;;;;;4995760;28;20039;-71
2022/05/11 04:47:41;;;;;;;10.25;4.53;;;20.70;52.60;;;;;;5012871;28;20034;-70
2022/05/11 04:50:08;;;;;;;5.60;4.10;;;20.70;52.50;;;;;;5013146;28;20041;-70
2022/05/11 04:52:34;;;;;;;6.53;4.45;;;20.90;52.00;;;;;;5013079;28;20030;-70
2022/05/11 04:55:00;;;;;;;6.55;4.20;;;21.00;51.70;;;;;;5029756;28;20045;-70
2022/05/11 04:57:26;;;;;;;5.70;4.40;;;21.10;51.30;;;;;;5032304;28;20018;-70
2022/05/11 04:59:52;;;;;;;6.55;4.43;;;21.20;51.10;;;;;;5032739;28;20029;-70
2022/05/11 05:02:22;;;;;;;5.15;3.90;;;21.50;50.30;;;;;;5032648;28;20093;-70
2022/05/11 05:04:49;;;;;;;4.63;4.00;;;21.90;50.00;;;;;;5032997;28;20029;-70
2022/05/11 05:07:15;;;;;;;5.75;3.85;;;22.10;49.20;;;;;;5032069;28;20038;-70
2022/05/11 05:09:44;;;;;;;4.47;3.78;;;22.20;48.70;;;;;;5032564;28;20038;-69
2022/05/11 05:12:11;;;;;;;5.88;4.15;;;22.20;48.70;;;;;;5032386;28;20385;-71
2022/05/11 05:14:37;;;;;;;7.03;4.43;;;22.40;48.40;;;;;;5014371;28;20053;-70
2022/05/11 05:17:05;;;;;;;5.55;3.92;;;22.40;48.40;;;;;;5031848;28;20104;-72
2022/05/11 05:19:31;;;;;;;4.65;4.00;;;22.50;48.00;;;;;;5032012;28;20039;-70
2022/05/11 05:21:58;;;;;;;7.57;4.25;;;22.50;47.90;;;;;;5032248;28;20453;-70
2022/05/11 05:24:24;;;;;;;6.03;3.45;;;22.60;47.70;;;;;;5032339;28;20414;-71
2022/05/11 05:26:50;;;;;;;5.45;3.58;;;22.70;47.90;;;;;;5032326;28;20037;-68
2022/05/11 05:32:00;;;;;;;6.70;4.07;;;23.20;46.90;;;;;;5032267;28;20091;-70
2022/05/11 05:34:25;;;;;;;4.68;3.80;;;23.40;46.40;;;;;;5031870;28;20025;-69
2022/05/11 05:36:51;;;;;;;6.63;4.90;;;23.80;45.70;;;;;;5031817;28;20025;-69
2022/05/11 05:39:17;;;;;;;7.30;4.32;;;24.20;45.00;;;;;;5031739;28;20024;-70
2022/05/11 05:41:42;;;;;;;8.20;3.97;;;24.60;44.30;;;;;;5032017;28;20029;-70
2022/05/11 05:44:08;;;;;;;8.50;4.00;;;25.00;42.90;;;;;;5016949;28;20100;-69
2022/05/11 05:46:34;;;;;;;5.43;3.47;;;25.20;42.80;;;;;;5012049;28;20108;-71
2022/05/11 05:49:00;;;;;;;5.55;3.58;;;25.20;42.60;;;;;;4994238;28;20053;-69
2022/05/11 05:51:27;;;;;;;3.83;3.50;;;25.30;42.90;;;;;;5011159;28;20088;-71
2022/05/11 05:53:52;;;;;;;9.63;3.67;;;26.00;41.80;;;;;;5018828;28;20490;-70
2022/05/11 05:56:18;;;;;;;5.43;3.45;;;26.90;39.60;;;;;;5030381;28;20110;-69
2022/05/11 05:58:44;;;;;;;5.10;3.75;;;27.10;38.80;;;;;;5011708;28;20066;-70
2022/05/11 06:01:10;;;;;;;6.30;3.17;;;27.70;38.00;;;;;;5013172;28;20472;-71
2022/05/11 06:03:37;;;;;;;9.32;4.10;;;27.60;37.60;;;;;;5012678;28;20026;-69
2022/05/11 06:06:03;;;;;;;5.32;3.40;;;28.20;37.00;;;;;;5030676;28;20022;-70
2022/05/11 06:08:29;;;;;;;6.05;3.50;;;28.90;36.30;;;;;;5013720;28;20108;-71
2022/05/11 06:10:57;;;;;;;6.53;3.78;;;29.10;35.90;;;;;;5031721;28;20103;-70
2022/05/11 06:13:23;;;;;;;8.23;4.05;;;29.20;34.90;;;;;;5031489;28;20027;-70
2022/05/11 06:15:55;;;;;;;7.70;3.72;;;29.30;34.90;;;;;;5031242;28;20024;-70
2022/05/11 06:18:21;;;;;;;5.50;3.35;;;29.40;34.70;;;;;;5030989;28;20223;-70
2022/05/11 06:23:12;;;;;;;6.82;3.40;;;30.10;34.30;;;;;;5027521;22;20054;-71
2022/05/11 06:25:38;;;;;;;5.25;3.80;;;30.20;33.80;;;;;;5009933;28;20033;-72
2022/05/11 06:28:06;;;;;;;5.22;3.08;;;30.20;33.50;;;;;;5009878;28;20022;-72
2022/05/11 06:30:33;;;;;;;5.32;3.30;;;29.60;34.20;;;;;;5010025;28;20064;-72
2022/05/11 06:33:00;;;;;;;6.97;3.17;;;29.50;34.40;;;;;;5010062;28;20049;-70
2022/05/11 06:35:27;;;;;;;6.72;3.42;;;29.20;35.80;;;;;;5010233;28;20101;-71
2022/05/11 06:37:54;;;;;;;5.00;3.05;;;29.20;35.40;;;;;;5011705;28;20026;-72
2022/05/11 06:40:21;;;;;;;8.95;4.00;;;28.80;36.70;;;;;;5011882;28;20076;-71
2022/05/11 06:42:48;;;;;;;6.63;3.63;;;28.70;36.70;;;;;;5011995;28;20025;-72
2022/05/11 06:45:14;;;;;;;7.25;3.40;;;28.30;37.00;;;;;;5011659;28;20026;-72
2022/05/11 06:47:40;;;;;;;3.97;3.10;;;28.00;37.60;;;;;;5011338;28;20482;-71
2022/05/11 06:50:07;;;;;;;3.67;3.30;;;27.90;38.10;;;;;;5011408;28;20034;-71
2022/05/11 06:52:32;;;;;;;6.57;3.10;;;28.10;37.90;;;;;;5011607;28;20034;-72
2022/05/11 07:00:31;;;;;;;6.82;3.47;;;28.50;36.70;;;;;;5012326;28;20029;-71
2022/05/11 07:02:57;;;;;;;4.50;3.10;;;28.40;37.00;;;;;;5012142;28;20075;-71
2022/05/11 07:05:23;;;;;;;4.72;3.33;;;28.20;37.50;;;;;;5011902;28;20033;-72
2022/05/11 07:07:51;;;;;;;8.25;4.10;;;28.10;37.50;;;;;;5011826;28;20034;-72
2022/05/11 07:10:17;;;;;;;4.13;3.28;;;28.30;37.20;;;;;;5014448;28;20079;-73
2022/05/11 07:12:48;;;;;;;4.00;3.22;;;28.20;36.80;;;;;;5015134;28;20105;-73
2022/05/11 07:15:18;;;;;;;8.30;3.05;;;28.00;37.50;;;;;;5015613;28;20045;-71
2022/05/11 07:17:56;;;;;;;3.72;3.10;;;28.20;37.50;;;;;;5015145;28;20017;-72
2022/05/11 07:20:33;;;;;;;5.03;3.10;;;28.40;37.20;;;;;;5015454;28;20018;-71
2022/05/11 07:23:00;;;;;;;6.18;2.75;;;28.60;37.30;;;;;;5015129;28;20030;-73
2022/05/11 07:25:27;;;;;;;4.30;2.88;;;29.60;35.90;;;;;;4982112;28;20488;-72
2022/05/11 07:27:54;;;;;;;8.95;2.83;;;30.70;34.30;;;;;;5015359;28;20116;-73
2022/05/11 07:30:38;;;;;;;3.40;3.10;;;31.40;32.60;;;;;;5015371;28;20030;-70
2022/05/11 07:33:04;;;;;;;4.30;3.03;;;31.70;31.40;;;;;;5015169;28;20029;-71
2022/05/11 07:35:30;;;;;;;4.60;2.90;;;31.80;32.10;;;;;;4997068;28;20030;-72
2022/05/11 07:37:57;;;;;;;5.80;2.97;;;32.00;31.10;;;;;;5014466;28;20472;-72
2022/05/11 07:40:23;;;;;;;4.63;2.78;;;32.00;31.30;;;;;;5014973;28;20036;-72
2022/05/11 07:42:50;;;;;;;4.43;3.33;;;31.70;32.30;;;;;;5014341;28;20026;-71
2022/05/11 07:45:17;;;;;;;3.47;2.88;;;32.30;31.30;;;;;;5014668;28;20049;-71
2022/05/11 07:47:43;;;;;;;5.18;3.08;;;32.80;31.00;;;;;;5014455;28;20030;-71
2022/05/11 07:50:13;;;;;;;5.10;3.33;;;32.90;30.60;;;;;;4996961;28;20112;-72
2022/05/11 07:52:44;;;;;;;10.00;5.78;;;32.90;30.60;;;;;;5014591;28;20397;-71
2022/05/11 07:55:09;;;;;;;;;;;33.10;29.70;;;;;;5015085;28;20400;-71
2022/05/11 08:00:20;;;;;;;6.35;2.85;;;33.80;29.20;;;;;;5014737;28;20036;-72
2022/05/11 08:02:46;;;;;;;4.28;3.00;;;33.60;29.20;;;;;;5014757;28;20088;-71
2022/05/11 08:05:14;;;;;;;5.28;2.90;;;34.10;29.00;;;;;;5014892;28;20495;-72
2022/05/11 08:08:01;;;;;;;6.25;3.03;;;34.50;28.50;;;;;;5014362;28;20087;-72
2022/05/11 08:10:29;;;;;;;5.13;2.83;;;35.20;27.90;;;;;;4997216;28;20061;-71
2022/05/11 08:12:55;;;;;;;4.63;2.70;;;35.70;26.70;;;;;;5015120;28;20041;-71
2022/05/11 08:15:24;;;;;;;4.05;3.03;;;35.40;26.60;;;;;;5014081;28;20437;-71
2022/05/11 08:17:53;;;;;;;3.50;2.22;;;34.80;27.70;;;;;;5014161;28;20037;-72
2022/05/11 08:20:24;;;;;;;3.97;2.60;;;35.00;27.30;;;;;;4997344;28;20373;-70
2022/05/11 08:22:51;;;;;;;5.03;2.80;;;35.30;26.80;;;;;;5015787;28;20412;-71
2022/05/11 08:25:22;;;;;;;3.83;2.60;;;35.10;26.90;;;;;;5014978;28;20030;-72
2022/05/11 08:27:59;;;;;;;3.88;3.00;;;34.50;26.70;;;;;;5014121;28;20531;-71
2022/05/11 08:33:27;;;;;;;2.85;2.38;;;33.90;27.90;;;;;;5014020;28;20108;-71
2022/05/11 08:36:04;;;;;;;4.40;2.70;;;32.70;28.90;;;;;;5013790;28;20037;-71
2022/05/11 08:38:37;;;;;;;7.28;2.92;;;32.80;29.40;;;;;;5013392;28;20108;-72
2022/05/11 08:41:26;;;;;;;3.58;2.50;;;33.60;28.10;;;;;;4996267;28;20361;-71
2022/05/11 08:44:19;;;;;;;4.20;2.20;;;33.90;27.40;;;;;;5014144;28;20026;-71
2022/05/11 08:46:59;;;;;;;3.90;2.53;;;34.40;26.00;;;;;;5011604;28;20477;-71
2022/05/11 08:49:54;;;;;;;5.47;2.28;;;34.60;25.70;;;;;;5012897;28;20026;-71
2022/05/11 08:52:47;;;;;;;4.03;2.20;;;35.00;25.60;;;;;;5004687;28;20034;-71
2022/05/11 08:55:17;;;;;;;5.32;2.83;;;35.50;24.50;;;;;;5013240;28;20072;-71
2022/05/11 08:57:46;;;;;;;2.72;2.40;;;34.90;24.90;;;;;;5013256;28;20369;-71
2022/05/11 09:00:15;;;;;;;2.83;2.63;;;34.10;26.10;;;;;;4995491;28;20495;-71
2022/05/11 09:02:52;;;;;;;3.50;2.97;;;33.50;26.60;;;;;;5013175;28;20026;-71
2022/05/11 09:05:29;;;;;;;5.80;2.70;;;32.70;27.80;;;;;;5013203;28;20053;-71
2022/05/11 09:07:56;;;;;;;11.35;3.20;;;32.90;28.50;;;;;;5012921;28;20030;-71
2022/05/11 09:10:35;;;;;;;4.05;2.88;;;33.50;27.10;;;;;;5013086;28;20113;-72
2022/05/11 09:13:05;;;;;;;10.95;2.50;;;33.50;27.20;;;;;;5012681;28;20033;-71
2022/05/11 09:15:53;;;;;;;4.27;2.60;;;33.90;26.40;;;;;;5012593;28;20060;-71
2022/05/11 09:18:32;;;;;;;9.23;2.85;;;34.00;26.50;;;;;;5012555;28;20261;-71
2022/05/11 09:21:10;;;;;;;5.93;2.45;;;33.80;27.80;;;;;;5012498;28;20392;-71
2022/05/11 09:23:40;;;;;;;4.72;2.80;;;34.00;27.10;;;;;;4995157;28;20083;-71
2022/05/11 09:26:12;;;;;;;4.60;2.10;;;33.70;27.20;;;;;;4995070;28;20454;-71
2022/05/11 09:28:45;;;;;;;7.70;2.85;;;33.60;26.70;;;;;;5012253;28;20032;-72
2022/05/11 09:31:13;;;;;;;3.42;2.40;;;33.40;26.80;;;;;;5012532;28;20029;-72
2022/05/11 09:34:01;;;;;;;5.20;2.42;;;33.10;27.00;;;;;;5012265;28;20034;-72
2022/05/11 09:36:38;;;;;;;5.03;2.42;;;33.10;27.20;;;;;;5012381;28;20041;-72
2022/05/11 09:39:14;;;;;;;2.58;2.38;;;33.00;27.90;;;;;;5012697;28;20045;-72
2022/05/11 09:42:13;;;;;;;7.07;2.50;;;33.20;26.70;;;;;;5012740;28;20030;-72
2022/05/11 09:44:45;;;;;;;8.70;2.42;;;32.90;27.40;;;;;;4994744;28;20400;-70
2022/05/11 09:47:27;;;;;;;5.65;2.30;;;32.70;28.00;;;;;;5012004;28;20084;-71
2022/05/11 09:49:53;;;;;;;3.55;2.50;;;32.50;28.60;;;;;;5011598;28;20018;-71
2022/05/11 09:52:32;;;;;;;5.85;2.50;;;32.60;28.40;;;;;;5012293;28;20068;-70
2022/05/11 09:54:58;;;;;;;4.22;2.72;;;32.60;29.10;;;;;;5012454;28;20105;-71
2022/05/11 09:57:28;;;;;;;3.40;2.80;;;32.40;29.50;;;;;;5012015;28;20056;-71
2022/05/11 10:00:21;;;;;;;8.80;2.65;;;32.60;28.70;;;;;;5012314;28;20033;-71
2022/05/11 10:02:53;;;;;;;4.47;2.88;;;32.50;28.40;;;;;;5012262;28;20056;-71
2022/05/11 10:05:28;;;;;;;6.82;2.97;;;32.20;28.40;;;;;;5012074;28;20113;-71
2022/05/11 10:08:05;;;;;;;4.65;2.88;;;31.70;29.30;;;;;;5011901;28;20053;-71
2022/05/11 10:11:12;;;;;;;10.80;2.85;;;31.60;30.50;;;;;;5012274;28;20092;-71
2022/05/11 10:13:57;;;;;;;5.32;2.53;;;31.40;29.80;;;;;;5012132;28;20087;-71
2022/05/11 10:22:11;;;;;;;7.50;3.05;;;31.10;31.10;;;;;;5011915;28;20040;-71
2022/05/11 10:24:52;;;;;;;14.07;2.92;;;30.70;30.60;;;;;;5011753;28;20025;-71
2022/05/11 10:27:30;;;;;;;4.88;2.63;;;30.50;31.10;;;;;;5011698;28;20034;-71
2022/05/11 10:30:05;;;;;;;9.00;3.10;;;30.10;31.90;;;;;;5011709;28;20030;-71
2022/05/11 10:33:05;;;;;;;6.68;2.83;;;30.10;31.50;;;;;;4994135;28;20041;-71
2022/05/11 10:35:57;;;;;;;5.78;3.15;;;30.00;32.40;;;;;;5011623;28;20060;-71
2022/05/11 10:38:54;;;;;;;8.77;2.60;;;29.90;31.10;;;;;;5011912;28;20072;-71
2022/05/11 10:41:47;;;;;;;3.35;2.38;;;29.60;31.50;;;;;;5011873;28;20040;-71
2022/05/11 10:44:27;;;;;;;3.38;3.03;;;29.50;32.20;;;;;;5014330;28;20468;-70
2022/05/11 10:47:18;;;;;;;3.88;3.03;;;29.30;32.10;;;;;;5015722;28;20057;-71
2022/05/11 10:50:10;;;;;;;;;;;29.40;32.80;;;;;;5015785;28;20395;-71
2022/05/11 10:53:00;;;;;;;4.55;2.78;;;29.50;33.30;;;;;;5011562;28;20256;-71
2022/05/11 10:55:45;;;;;;;2.75;2.55;;;29.50;32.10;;;;;;5015768;28;20029;-71
2022/05/11 10:58:29;;;;;;;3.50;2.28;;;29.70;31.40;;;;;;5015549;28;20523;-72
2022/05/11 11:01:08;;;;;;;3.15;2.70;;;29.50;32.30;;;;;;5016132;28;20068;-71
2022/05/11 11:03:33;;;;;;;6.70;3.40;;;29.50;32.10;;;;;;5015732;28;20026;-71
2022/05/11 11:09:51;;;;;;;8.93;3.03;;;29.20;31.30;;;;;;5015801;28;20083;-71
2022/05/11 11:12:52;;;;;;;3.58;2.78;;;29.00;31.70;;;;;;5015796;28;20026;-70
2022/05/11 11:15:19;;;;;;;;;;;28.80;32.40;;;;;;4997129;28;20040;-71
2022/05/11 11:17:46;;;;;;;5.07;2.78;;;28.70;33.10;;;;;;5015591;28;19912;-72
2022/05/11 11:20:16;;;;;;;6.20;2.95;;;28.70;33.00;;;;;;4998081;28;20030;-71
2022/05/11 11:23:00;;;;;;;6.53;2.80;;;28.70;33.60;;;;;;5015457;28;20438;-71
2022/05/11 11:25:42;;;;;;;4.93;3.10;;;28.90;34.00;;;;;;5015039;28;20029;-72
2022/05/11 11:28:15;;;;;;;7.20;2.67;;;29.20;33.70;;;;;;5015295;28;20117;-71
2022/05/11 11:31:05;;;;;;;2.85;2.15;;;29.40;31.50;;;;;;5015031;28;20491;-71
2022/05/11 11:33:31;;;;;;;12.13;3.00;;;29.40;31.00;;;;;;5015324;28;20109;-72
2022/05/11 11:36:23;;;;;;;3.60;2.60;;;29.30;31.60;;;;;;5015195;28;20153;-71
2022/05/11 11:38:49;;;;;;;6.28;3.25;;;29.10;32.30;;;;;;5014993;28;20101;-71
2022/05/11 11:41:22;;;;;;;3.03;2.13;;;29.30;32.30;;;;;;5014971;28;20468;-71
2022/05/11 11:43:57;;;;;;;3.92;2.20;;;29.40;29.90;;;;;;5014845;28;20022;-71
2022/05/11 11:46:40;;;;;;;10.30;3.58;;;29.30;31.00;;;;;;5014750;28;20026;-71
2022/05/11 11:49:37;;;;;;;2.97;2.15;;;29.20;30.80;;;;;;5014305;28;20608;-72
2022/05/11 11:52:09;;;;;;;3.45;2.25;;;29.30;31.80;;;;;;4996535;28;20022;-71
2022/05/11 11:54:38;;;;;;;9.43;2.97;;;29.20;30.60;;;;;;5013811;28;20084;-71
2022/05/11 11:57:06;;;;;;;17.02;2.78;;;29.30;30.80;;;;;;5014498;28;20081;-72
2022/05/11 11:59:49;;;;;;;12.27;2.85;;;29.40;31.40;;;;;;5014634;28;20026;-70
2022/05/11 12:02:17;;;;;;;7.57;2.75;;;29.40;30.70;;;;;;5014614;28;20022;-71
2022/05/11 12:04:58;;;;;;;4.93;2.38;;;29.40;30.10;;;;;;5014720;28;20022;-72
2022/05/11 12:16:23;;;;;;;5.60;2.13;;;28.70;30.40;;;;;;5014245;28;20105;-71
2022/05/11 12:18:48;;;;;;;6.70;2.58;;;28.70;31.10;;;;;;5014066;28;20495;-72
2022/05/11 12:23:54;;;;;;;7.45;2.70;;;28.60;30.80;;;;;;5012348;28;20057;-70
2022/05/11 12:26:30;;;;;;;6.80;2.50;;;28.50;30.50;;;;;;5013800;28;20164;-70
2022/05/11 12:31:56;;;;;;;5.03;2.47;;;28.70;31.50;;;;;;5013356;28;20096;-71
2022/05/11 12:34:27;;;;;;;3.40;2.13;;;28.80;30.20;;;;;;5013428;28;20419;-71
2022/05/11 12:36:53;;;;;;;;;;;28.80;29.40;;;;;;5013841;28;20037;-71
2022/05/11 12:39:30;;;;;;;3.58;2.40;;;28.80;30.50;;;;;;4994971;28;19996;-71
2022/05/11 12:41:56;;;;;;;3.42;2.60;;;29.00;29.90;;;;;;4995722;28;20432;-71
2022/05/11 12:44:29;;;;;;;3.90;1.98;;;29.00;30.40;;;;;;5013261;28;20026;-71
2022/05/11 12:46:57;;;;;;;4.53;2.38;;;28.90;29.80;;;;;;5013300;28;20014;-72
2022/05/11 12:49:25;;;;;;;9.18;3.03;;;28.90;30.10;;;;;;5013043;28;20109;-72
2022/05/11 12:51:53;;;;;;;3.70;2.22;;;28.90;30.40;;;;;;5013155;28;20395;-70
2022/05/11 12:54:23;;;;;;;4.38;2.58;;;29.00;31.20;;;;;;5013203;28;20045;-71
2022/05/11 12:56:59;;;;;;;5.38;2.63;;;29.10;30.60;;;;;;4995612;28;20029;-72
2022/05/11 12:59:32;;;;;;;8.23;2.88;;;29.10;30.10;;;;;;5012956;28;20156;-71
2022/05/11 13:02:19;;;;;;;7.38;2.80;;;29.10;30.10;;;;;;5012972;28;20037;-70
2022/05/11 13:04:54;;;;;;;6.65;2.20;;;29.00;29.80;;;;;;5013018;28;20172;-72
2022/05/11 13:07:32;;;;;;;7.57;2.70;;;28.90;29.50;;;;;;5012129;28;20026;-72
2022/05/11 13:10:00;;;;;;;3.50;2.72;;;28.90;29.90;;;;;;5013262;28;20441;-71
2022/05/11 13:12:27;;;;;;;6.20;2.70;;;28.90;30.50;;;;;;5013211;28;20108;-72
2022/05/11 13:14:55;;;;;;;5.85;2.40;;;28.80;30.50;;;;;;4996374;28;20030;-71
2022/05/11 13:17:32;;;;;;;6.45;2.42;;;28.80;31.10;;;;;;5012862;28;20018;-71
2022/05/11 13:20:12;;;;;;;7.60;3.00;;;28.90;30.80;;;;;;5013185;28;20022;-71
2022/05/11 13:22:38;;;;;;;5.13;2.63;;;28.90;31.30;;;;;;5013140;28;20431;-71
2022/05/11 13:25:07;;;;;;;3.72;2.60;;;28.90;30.80;;;;;;4995824;28;20030;-71
2022/05/11 13:27:45;;;;;;;5.97;2.58;;;28.90;31.00;;;;;;5012760;28;20034;-71
2022/05/11 13:30:21;;;;;;;5.40;2.55;;;28.90;30.50;;;;;;5013164;28;20107;-71
2022/05/11 13:32:52;;;;;;;4.50;2.95;;;28.90;30.30;;;;;;5013507;28;20038;-71
2022/05/11 13:35:23;;;;;;;;;;;28.90;30.50;;;;;;5013621;28;20077;-71
2022/05/11 13:38:11;;;;;;;4.03;2.53;;;29.00;30.90;;;;;;5012615;28;20393;-71
2022/05/11 13:40:41;;;;;;;5.55;2.65;;;29.00;29.60;;;;;;5013306;28;20022;-71
2022/05/11 13:43:29;;;;;;;6.88;2.70;;;29.00;29.50;;;;;;5013754;28;20025;-73
2022/05/11 13:46:04;;;;;;;4.85;2.50;;;28.90;29.80;;;;;;5014199;28;20033;-72
2022/05/11 13:48:45;;;;;;;10.75;2.80;;;28.90;29.80;;;;;;5012629;28;20030;-73
2022/05/11 13:51:25;;;;;;;4.50;2.17;;;28.90;30.10;;;;;;5014903;28;20519;-71
2022/05/11 13:53:54;;;;;;;2.83;2.27;;;28.80;30.90;;;;;;5013429;28;20068;-71
2022/05/11 13:56:26;;;;;;;5.63;3.10;;;28.90;30.30;;;;;;5013412;28;20041;-71